Time;durP1;ratioP1;P1;durP2;ratioP2;P2;SDS_P1;SDS_P2;PMS_P1;PMS_P2;Temp;Humidity;BMP_temperature;BMP_pressure;BME280_temperature;BME280_humidity;BME280_pressure;Samples;Min_cycle;Max_cycle;Signal;HPM_P1;HPM_P2
2021/11/13 00:01:51;;;;;;;20.20;18.07;;;;;;;8.16;62.46;97929.22;8316573;28;20241;-64
2021/11/13 00:05:56;;;;;;;23.43;18.57;;;;;;;8.12;62.25;97939.72;8316035;28;20324;-67
2021/11/13 00:09:59;;;;;;;18.37;16.47;;;;;;;8.27;62.03;97943.50;8318164;28;20248;-67
2021/11/13 00:14:02;;;;;;;18.00;15.80;;;;;;;8.30;61.71;97946.81;8318126;28;20404;-67
2021/11/13 00:18:05;;;;;;;17.67;15.93;;;;;;;8.38;61.77;97941.38;8318681;28;20263;-67
2021/11/13 00:22:10;;;;;;;25.57;15.00;;;;;;;8.14;62.20;97943.91;8318055;28;20523;-67
2021/11/13 00:26:14;;;;;;;17.40;15.70;;;;;;;8.18;62.45;97942.06;8317833;28;20244;-67
2021/11/13 00:30:17;;;;;;;18.20;16.27;;;;;;;8.29;62.04;97939.13;8317952;28;20237;-67
2021/11/13 00:34:20;;;;;;;17.20;15.43;;;;;;;8.47;61.65;97933.31;8317599;28;20236;-67
2021/11/13 00:38:25;;;;;;;17.37;15.53;;;;;;;8.53;61.50;97932.25;8316709;28;20228;-67
2021/11/13 00:42:29;;;;;;;18.13;14.80;;;;;;;8.54;61.17;97929.63;8317146;28;20247;-67
2021/11/13 00:46:32;;;;;;;15.23;13.63;;;;;;;8.38;61.30;97929.31;8316966;28;20232;-67
2021/11/13 00:50:35;;;;;;;14.10;12.30;;;;;;;8.35;61.59;97931.97;8316739;28;20570;-66
2021/11/13 00:54:39;;;;;;;13.77;12.37;;;;;;;8.08;62.13;97915.75;8316816;28;20247;-67
2021/11/13 00:58:42;;;;;;;13.23;11.93;;;;;;;8.08;62.75;97918.34;8316871;28;20295;-67
2021/11/13 01:02:45;;;;;;;12.37;11.17;;;;;;;7.99;62.55;97928.97;8316040;28;20243;-67
2021/11/13 01:06:49;;;;;;;13.00;11.70;;;;;;;8.06;62.23;97922.72;8316601;28;20243;-66
2021/11/13 01:10:55;;;;;;;13.23;11.90;;;;;;;7.87;62.78;97921.66;8316425;28;20240;-66
2021/11/13 01:14:59;;;;;;;13.27;11.90;;;;;;;8.06;61.99;97916.72;8316288;28;20243;-66
2021/11/13 01:19:02;;;;;;;13.63;12.10;;;;;;;8.09;61.54;97914.00;8316410;28;20263;-67
2021/11/13 01:23:05;;;;;;;13.33;12.03;;;;;;;8.10;62.10;97913.13;8316348;28;20550;-67
2021/11/13 01:27:09;;;;;;;11.97;10.77;;;;;;;7.95;61.67;97927.41;8315947;28;20251;-66
2021/11/13 01:31:14;;;;;;;16.10;12.57;;;;;;;7.69;62.15;97920.53;8315741;28;20239;-66
2021/11/13 01:35:21;;;;;;;13.70;12.20;;;;;;;7.46;63.46;97916.13;8316020;28;20232;-67
2021/11/13 01:39:24;;;;;;;12.20;11.07;;;;;;;7.53;63.26;97926.19;8315772;28;20566;-66
2021/11/13 01:43:31;;;;;;;12.90;11.60;;;;;;;7.85;62.06;97923.47;8315981;28;20244;-66
2021/11/13 01:47:34;;;;;;;12.63;11.43;;;;;;;7.70;62.33;97920.50;8316958;28;20236;-66
2021/11/13 01:51:37;;;;;;;12.53;11.33;;;;;;;7.91;61.98;97929.22;8314870;28;20243;-66
2021/11/13 01:55:41;;;;;;;11.90;10.63;;;;;;;7.98;61.43;97922.16;8315533;28;20554;-66
2021/11/13 01:59:45;;;;;;;12.13;10.93;;;;;;;7.87;61.22;97921.66;8314820;28;20229;-67
2021/11/13 02:03:49;;;;;;;12.33;11.13;;;;;;;7.95;61.57;97912.75;8314807;28;20240;-65
2021/11/13 02:07:53;;;;;;;11.20;10.20;;;;;;;7.92;61.18;97904.28;8314833;28;20240;-64
2021/11/13 02:11:56;;;;;;;12.70;11.50;;;;;;;7.97;61.05;97907.56;8314629;28;20431;-64
2021/11/13 02:16:00;;;;;;;11.80;10.70;;;;;;;7.83;61.59;97908.88;8314899;28;20324;-64
2021/11/13 02:20:24;;;;;;;13.20;11.90;;;;;;;7.43;62.15;97907.63;8314931;28;20435;-66
2021/11/13 02:24:27;;;;;;;12.67;11.10;;;;;;;7.07;62.71;97916.53;8314961;28;20279;-65
2021/11/13 02:28:35;;;;;;;12.17;10.83;;;;;;;7.14;63.28;97930.88;8314793;28;20233;-65
2021/11/13 02:32:38;;;;;;;12.40;11.10;;;;;;;7.09;62.37;97927.63;8314620;28;20428;-65
2021/11/13 02:36:42;;;;;;;11.67;10.47;;;;;;;7.29;62.45;97926.97;8314750;28;20232;-65
2021/11/13 02:40:47;;;;;;;12.57;11.27;;;;;;;6.91;63.57;97932.44;8314246;28;20236;-66
2021/11/13 02:44:51;;;;;;;12.17;10.43;;;;;;;7.24;62.86;97940.03;8314262;28;20239;-66
2021/11/13 02:48:54;;;;;;;11.33;10.13;;;;;;;7.28;62.24;97935.63;8314308;28;20229;-65
2021/11/13 02:53:00;;;;;;;11.70;10.60;;;;;;;7.41;61.53;97929.19;8314152;28;20570;-65
2021/11/13 02:57:04;;;;;;;12.77;10.40;;;;;;;7.65;61.35;97930.09;8314264;28;20430;-65
2021/11/13 03:01:09;;;;;;;11.03;10.03;;;;;;;7.17;61.84;97938.53;8315615;28;20236;-65
2021/11/13 03:05:20;;;;;;;11.57;10.40;;;;;;;7.61;60.91;97934.50;8320119;28;20416;-65
2021/11/13 03:09:24;;;;;;;11.53;10.33;;;;;;;7.64;61.26;97933.59;8320247;28;20237;-65
2021/11/13 03:13:29;;;;;;;12.73;11.33;;;;;;;7.01;63.27;97925.28;8319623;28;20241;-65
2021/11/13 03:17:31;;;;;;;10.57;9.57;;;;;;;7.17;62.06;97916.16;8319999;28;20248;-65
2021/11/13 03:21:34;;;;;;;11.50;10.37;;;;;;;7.46;60.88;97916.97;8319841;28;20244;-65
2021/11/13 03:25:41;;;;;;;10.50;9.50;;;;;;;7.72;60.03;97923.03;8319967;28;20237;-65
2021/11/13 03:29:46;;;;;;;11.57;10.47;;;;;;;7.50;60.13;97921.16;8319511;28;20237;-65
2021/11/13 03:33:49;;;;;;;12.20;11.00;;;;;;;7.80;59.55;97914.13;8318680;28;20229;-66
2021/11/13 03:37:51;;;;;;;10.33;9.33;;;;;;;7.44;60.15;97919.63;8319529;28;20239;-66
2021/11/13 03:41:56;;;;;;;10.80;9.80;;;;;;;7.36;60.46;97920.75;8318831;28;20237;-65
2021/11/13 03:45:59;;;;;;;10.83;9.73;;;;;;;7.38;60.62;97916.38;8318767;28;20232;-65
2021/11/13 03:50:02;;;;;;;10.93;9.93;;;;;;;7.09;60.93;97925.88;8318852;28;20239;-65
2021/11/13 03:54:04;;;;;;;11.03;9.93;;;;;;;6.96;61.55;97920.25;8318610;28;20232;-66
2021/11/13 03:58:09;;;;;;;10.77;9.67;;;;;;;7.39;60.04;97903.47;8318923;28;20225;-65
2021/11/13 04:02:11;;;;;;;11.10;10.00;;;;;;;7.18;60.96;97912.72;8318565;28;20240;-66
2021/11/13 04:06:14;;;;;;;10.90;9.80;;;;;;;7.27;61.22;97906.41;8318127;28;20229;-65
2021/11/13 04:10:19;;;;;;;11.33;10.13;;;;;;;7.20;61.71;97908.38;8318235;28;20255;-65
2021/11/13 04:14:24;;;;;;;11.00;10.00;;;;;;;7.19;61.04;97895.53;8317000;28;20241;-65
2021/11/13 04:18:26;;;;;;;10.83;9.83;;;;;;;7.23;60.99;97889.38;8318139;28;20224;-66
2021/11/13 04:22:29;;;;;;;10.70;9.70;;;;;;;6.86;61.66;97887.97;8317713;28;20240;-66
2021/11/13 04:26:33;;;;;;;10.20;9.13;;;;;;;6.90;61.85;97879.25;8317829;28;20236;-66
2021/11/13 04:30:37;;;;;;;10.43;9.43;;;;;;;6.67;62.67;97872.25;8317988;28;20236;-65
2021/11/13 04:34:46;;;;;;;9.90;9.00;;;;;;;6.95;62.06;97873.94;8317475;28;20247;-65
2021/11/13 04:38:50;;;;;;;10.50;9.40;;;;;;;6.71;62.52;97876.41;8316960;28;20519;-65
2021/11/13 04:42:53;;;;;;;10.23;9.27;;;;;;;6.79;62.52;97860.72;8317411;28;20428;-65
2021/11/13 04:46:57;;;;;;;10.87;9.80;;;;;;;6.76;62.64;97861.69;8317810;28;20236;-65
2021/11/13 04:51:01;;;;;;;11.63;10.53;;;;;;;6.62;63.83;97854.34;8317355;28;20543;-65
2021/11/13 04:55:05;;;;;;;10.87;9.53;;;;;;;6.82;62.71;97834.91;8316741;28;20243;-65
2021/11/13 04:59:08;;;;;;;10.23;9.23;;;;;;;6.82;63.13;97833.16;8317274;28;20232;-65
2021/11/13 05:03:12;;;;;;;11.70;8.93;;;;;;;6.99;62.11;97831.81;8316637;28;20232;-65
2021/11/13 05:07:15;;;;;;;9.90;8.93;;;;;;;6.73;62.49;97842.91;8316834;28;20425;-65
2021/11/13 05:11:18;;;;;;;9.97;9.07;;;;;;;6.58;63.16;97859.66;8315935;28;20232;-65
2021/11/13 05:15:21;;;;;;;10.10;9.10;;;;;;;6.84;62.68;97859.69;8315912;28;20350;-65
2021/11/13 05:19:25;;;;;;;9.87;8.93;;;;;;;6.97;62.10;97864.47;8313288;28;20235;-65
2021/11/13 05:23:28;;;;;;;9.97;8.97;;;;;;;6.99;62.47;97857.56;8315767;28;20241;-66
2021/11/13 05:27:31;;;;;;;10.93;9.93;;;;;;;6.84;62.25;97848.56;8315916;28;20229;-65
2021/11/13 05:31:34;;;;;;;11.00;9.90;;;;;;;6.33;64.81;97852.66;8296960;28;20562;-65
2021/11/13 05:35:38;;;;;;;10.60;9.60;;;;;;;6.84;62.90;97858.88;8299384;28;20237;-65
2021/11/13 05:39:41;;;;;;;11.73;10.10;;;;;;;6.59;63.55;97861.34;8293452;28;20421;-66
2021/11/13 05:43:44;;;;;;;10.33;9.23;;;;;;;7.08;61.98;97864.13;8283210;28;20237;-65
2021/11/13 05:47:47;;;;;;;10.63;9.63;;;;;;;6.92;62.44;97866.34;8298444;28;20234;-66
2021/11/13 05:51:52;;;;;;;11.90;10.07;;;;;;;7.23;61.59;97881.66;8300574;28;20224;-65
2021/11/13 05:55:54;;;;;;;10.20;9.20;;;;;;;7.24;61.44;97875.63;8298213;28;20432;-65
2021/11/13 05:59:57;;;;;;;10.43;9.43;;;;;;;7.01;61.70;97869.47;8298091;28;20227;-65
2021/11/13 06:04:00;;;;;;;9.30;8.47;;;;;;;7.27;61.40;97879.81;8298062;28;20228;-65
2021/11/13 06:08:05;;;;;;;9.53;8.63;;;;;;;7.37;61.32;97882.06;8297630;28;20231;-65
2021/11/13 06:12:09;;;;;;;9.00;8.20;;;;;;;7.48;60.37;97893.75;8297757;28;20225;-65
2021/11/13 06:16:12;;;;;;;9.73;8.83;;;;;;;7.17;60.98;97903.28;8297641;28;20543;-65
2021/11/13 06:20:15;;;;;;;10.40;9.50;;;;;;;7.30;60.55;97898.59;8297636;28;20224;-65
2021/11/13 06:24:19;;;;;;;10.10;9.20;;;;;;;6.68;62.81;97903.97;8297663;28;20229;-65
2021/11/13 06:28:22;;;;;;;9.67;8.77;;;;;;;6.94;62.33;97910.91;8292499;28;20244;-65
2021/11/13 06:32:25;;;;;;;10.43;8.90;;;;;;;6.98;61.80;97915.06;8281713;28;20229;-66
2021/11/13 06:36:28;;;;;;;10.73;9.67;;;;;;;6.73;62.41;97913.22;8284262;28;20409;-66
2021/11/13 06:40:32;;;;;;;10.47;9.47;;;;;;;7.10;61.62;97917.28;8288659;28;20406;-65
2021/11/13 06:44:35;;;;;;;10.60;9.50;;;;;;;7.07;61.49;97908.81;8288433;28;20237;-65
2021/11/13 06:48:38;;;;;;;10.73;9.63;;;;;;;6.65;62.91;97910.06;8288153;28;20244;-65
2021/11/13 06:52:41;;;;;;;13.10;10.43;;;;;;;6.13;64.80;97906.38;8288242;28;20237;-66
2021/11/13 06:56:45;;;;;;;10.63;9.63;;;;;;;6.40;64.46;97915.91;8302321;28;20244;-65
2021/11/13 07:00:48;;;;;;;10.07;9.17;;;;;;;6.69;63.04;97916.78;8289991;28;20236;-66
2021/11/13 07:04:52;;;;;;;10.70;9.60;;;;;;;6.75;63.52;97918.34;8306043;28;20244;-65
2021/11/13 07:08:55;;;;;;;11.57;9.70;;;;;;;6.39;63.99;97913.38;8319807;28;20233;-65
2021/11/13 07:13:00;;;;;;;11.80;10.70;;;;;;;6.07;65.69;97913.38;8319816;28;20233;-65
2021/11/13 07:17:03;;;;;;;12.40;11.10;;;;;;;6.22;65.60;97909.53;8319674;28;20516;-65
2021/11/13 07:21:07;;;;;;;12.10;10.80;;;;;;;6.42;64.79;97906.41;8304965;28;20248;-65
2021/11/13 07:25:13;;;;;;;13.57;11.67;;;;;;;6.06;66.22;97914.25;8303932;28;20422;-65
2021/11/13 07:29:18;;;;;;;11.80;10.27;;;;;;;6.39;64.72;97928.81;8292115;28;20233;-65
2021/11/13 07:33:20;;;;;;;13.73;10.60;;;;;;;6.69;64.36;97929.66;8286727;28;20423;-65
2021/11/13 07:37:24;;;;;;;10.87;9.87;;;;;;;6.63;64.24;97922.13;8291972;28;20229;-65
2021/11/13 07:41:28;;;;;;;11.53;10.33;;;;;;;6.55;64.22;97932.63;8302206;28;20332;-65
2021/11/13 07:45:32;;;;;;;10.73;9.53;;;;;;;6.59;64.51;97934.22;8302073;28;20233;-65
2021/11/13 07:49:35;;;;;;;12.17;10.97;;;;;;;6.43;65.68;97926.09;8300468;28;20225;-65
2021/11/13 07:53:38;;;;;;;11.33;10.17;;;;;;;6.42;64.95;97928.72;8301169;28;20235;-65
2021/11/13 07:57:41;;;;;;;13.00;10.77;;;;;;;5.82;67.16;97923.41;8301706;28;20229;-65
2021/11/13 08:01:45;;;;;;;11.93;10.10;;;;;;;5.91;67.19;97917.22;8301280;28;20225;-65
2021/11/13 08:05:48;;;;;;;9.47;8.57;;;;;;;6.30;65.81;97929.88;8300961;28;20395;-65
2021/11/13 08:09:51;;;;;;;10.57;9.10;;;;;;;6.46;64.87;97930.31;8287814;28;20237;-65
2021/11/13 08:13:54;;;;;;;8.83;8.03;;;;;;;6.42;65.59;97927.00;8293281;28;20570;-65
2021/11/13 08:17:58;;;;;;;8.70;7.90;;;;;;;6.38;64.92;97937.41;8301251;28;20531;-66
2021/11/13 08:22:01;;;;;;;8.73;7.87;;;;;;;6.88;63.91;97936.84;8317803;28;20248;-65
2021/11/13 08:26:05;;;;;;;8.70;7.90;;;;;;;6.80;63.63;97945.63;8317864;28;20236;-65
2021/11/13 08:30:09;;;;;;;11.27;9.83;;;;;;;6.91;63.26;97941.88;8317255;28;20232;-65
2021/11/13 08:34:13;;;;;;;11.33;10.33;;;;;;;6.50;64.88;97938.81;8317319;28;20244;-67
2021/11/13 08:38:20;;;;;;;8.63;7.80;;;;;;;6.95;64.04;97943.47;8304388;28;20273;-67
2021/11/13 08:42:22;;;;;;;8.30;7.50;;;;;;;6.95;63.75;97938.31;8308642;28;20566;-66
2021/11/13 08:46:25;;;;;;;7.03;6.40;;;;;;;7.31;62.96;97943.22;8317123;28;20252;-66
2021/11/13 08:50:31;;;;;;;7.87;7.07;;;;;;;7.24;62.17;97951.16;8317003;28;20251;-66
2021/11/13 08:54:34;;;;;;;8.60;7.07;;;;;;;7.21;62.66;97940.09;8316763;28;20248;-66
2021/11/13 08:58:38;;;;;;;7.47;6.77;;;;;;;7.54;61.95;97939.91;8316426;28;20427;-66
2021/11/13 09:02:41;;;;;;;6.90;6.30;;;;;;;7.23;62.30;97940.91;8316900;28;20423;-66
2021/11/13 09:06:46;;;;;;;8.70;7.80;;;;;;;7.42;61.93;97941.16;8316520;28;20236;-66
2021/11/13 09:10:49;;;;;;;7.77;7.07;;;;;;;7.33;61.93;97937.16;8315731;28;20307;-66
2021/11/13 09:14:53;;;;;;;7.87;7.17;;;;;;;6.91;63.00;97950.47;8316052;28;20517;-66
2021/11/13 09:18:56;;;;;;;7.07;6.30;;;;;;;7.03;63.82;97933.81;8316464;28;20236;-66
2021/11/13 09:23:02;;;;;;;7.30;6.40;;;;;;;6.92;63.75;97928.13;8316201;28;20236;-66
2021/11/13 09:27:05;;;;;;;9.03;7.17;;;;;;;7.00;63.59;97928.72;8315876;28;20240;-66
2021/11/13 09:31:08;;;;;;;7.40;6.77;;;;;;;6.69;63.93;97939.13;8316039;28;20418;-66
2021/11/13 09:35:12;;;;;;;7.73;6.93;;;;;;;6.72;64.89;97933.84;8316078;28;20233;-66
2021/11/13 09:39:19;;;;;;;7.53;6.83;;;;;;;7.16;63.13;97922.22;8316013;28;20228;-66
2021/11/13 09:43:24;;;;;;;7.73;7.03;;;;;;;7.40;62.34;97928.31;8315342;28;20427;-66
2021/11/13 09:47:28;;;;;;;7.50;6.80;;;;;;;7.51;62.47;97914.25;8315349;28;20236;-66
2021/11/13 09:51:32;;;;;;;7.60;6.90;;;;;;;7.10;63.23;97916.41;8315237;28;20236;-66
2021/11/13 09:55:40;;;;;;;7.60;6.90;;;;;;;7.17;63.29;97921.31;8315175;28;20287;-65
2021/11/13 09:59:43;;;;;;;8.63;7.80;;;;;;;7.18;63.86;97917.88;8314934;28;20234;-65
2021/11/13 10:03:47;;;;;;;7.20;6.50;;;;;;;7.19;63.89;97918.72;8314248;28;20228;-65
2021/11/13 10:07:55;;;;;;;7.20;6.53;;;;;;;7.48;63.03;97922.91;8296979;28;20233;-65
2021/11/13 10:11:59;;;;;;;8.63;7.13;;;;;;;7.11;64.32;97928.41;8281496;28;20268;-65
2021/11/13 10:16:04;;;;;;;8.23;7.50;;;;;;;7.29;63.79;97909.81;8282740;28;20241;-65
2021/11/13 10:20:22;;;;;;;7.87;7.17;;;;;;;7.31;63.19;97902.88;8282312;28;20289;-65
2021/11/13 10:24:28;;;;;;;9.13;8.33;;;;;;;6.76;65.45;97908.00;8296166;28;20239;-65
2021/11/13 10:28:32;;;;;;;8.13;7.43;;;;;;;7.26;63.77;97897.03;8312039;28;20422;-65
2021/11/13 10:32:35;;;;;;;9.50;8.50;;;;;;;6.88;65.08;97903.38;8314736;28;20547;-65
2021/11/13 10:36:40;;;;;;;8.40;7.60;;;;;;;7.16;63.16;97893.03;8314891;28;20277;-64
2021/11/13 10:40:52;;;;;;;7.67;6.97;;;;;;;6.84;64.47;97897.47;8314979;28;20590;-65
2021/11/13 10:44:58;;;;;;;8.47;7.67;;;;;;;6.94;64.79;97892.88;8305569;28;20232;-65
2021/11/13 10:49:01;;;;;;;11.67;8.27;;;;;;;7.07;63.98;97896.75;8298048;28;20224;-64
2021/11/13 10:53:08;;;;;;;9.13;8.23;;;;;;;7.24;63.80;97885.94;8314742;28;20239;-65
2021/11/13 10:57:11;;;;;;;8.20;7.40;;;;;;;6.96;64.50;97888.53;8314448;28;20331;-65
2021/11/13 11:01:34;;;;;;;7.77;6.97;;;;;;;7.51;62.85;97886.75;8311584;28;20233;-65
2021/11/13 11:05:45;;;;;;;10.03;9.03;;;;;;;7.86;62.28;97889.88;8314082;28;20294;-65
2021/11/13 11:09:58;;;;;;;18.60;11.43;;;;;;;8.07;61.67;97890.84;8314186;28;20237;-65
2021/11/13 11:14:02;;;;;;;10.53;8.03;;;;;;;7.81;62.35;97879.72;8314177;28;20255;-65
2021/11/13 11:18:06;;;;;;;9.57;8.67;;;;;;;7.98;61.81;97879.13;8313787;28;20229;-65
2021/11/13 11:22:10;;;;;;;9.53;7.77;;;;;;;8.21;61.74;97880.88;8315189;28;20534;-65
2021/11/13 11:26:18;;;;;;;9.40;8.40;;;;;;;8.09;61.70;97886.50;8319756;28;20232;-64
2021/11/13 11:30:23;;;;;;;10.70;8.30;;;;;;;7.69;63.27;97881.88;8319524;28;20539;-65
2021/11/13 11:34:33;;;;;;;7.67;6.97;;;;;;;7.57;63.40;97886.53;8304802;28;20248;-64
2021/11/13 11:38:36;;;;;;;7.50;6.80;;;;;;;7.95;62.16;97880.97;8301968;28;20229;-65
2021/11/13 11:42:41;;;;;;;8.43;7.40;;;;;;;7.06;64.74;97879.63;8286631;28;20241;-65
2021/11/13 11:46:44;;;;;;;7.93;7.00;;;;;;;7.53;64.52;97884.13;8286621;28;20570;-65
2021/11/13 11:50:49;;;;;;;8.17;7.37;;;;;;;7.61;64.40;97869.25;8286072;28;20252;-65
2021/11/13 11:54:52;;;;;;;9.27;7.30;;;;;;;7.62;64.90;97884.66;8286395;28;20539;-65
2021/11/13 11:58:56;;;;;;;8.10;7.30;;;;;;;7.31;66.30;97866.81;8289648;28;20220;-64
2021/11/13 12:03:02;;;;;;;8.60;6.97;;;;;;;7.56;66.53;97868.56;8301311;28;20232;-65
2021/11/13 12:07:09;;;;;;;9.67;8.70;;;;;;;7.90;65.35;97876.00;8318292;28;20245;-65
2021/11/13 12:11:22;;;;;;;10.70;8.77;;;;;;;7.69;66.27;97858.66;8302069;28;20233;-65
2021/11/13 12:15:25;;;;;;;10.77;9.57;;;;;;;7.79;65.48;97871.19;8298828;28;20234;-65
2021/11/13 12:19:28;;;;;;;12.80;10.67;;;;;;;7.73;66.83;97855.94;8310439;28;20237;-65
2021/11/13 12:23:36;;;;;;;8.73;7.93;;;;;;;7.62;67.14;97853.72;8317951;28;20237;-65
2021/11/13 12:27:39;;;;;;;8.73;7.93;;;;;;;7.35;67.29;97857.22;8317887;28;20527;-65
2021/11/13 12:31:43;;;;;;;9.33;8.43;;;;;;;7.61;67.32;97844.31;8317956;28;20409;-65
2021/11/13 12:35:51;;;;;;;9.03;8.13;;;;;;;7.80;67.27;97846.25;8316312;28;20239;-65
2021/11/13 12:40:11;;;;;;;8.53;7.70;;;;;;;7.97;66.11;97853.41;8317080;28;20236;-65
2021/11/13 12:44:16;;;;;;;8.70;7.90;;;;;;;7.98;67.02;97849.94;8316930;28;20546;-65
2021/11/13 12:48:19;;;;;;;9.63;8.60;;;;;;;8.23;65.88;97855.03;8316944;28;20232;-65
2021/11/13 12:52:34;;;;;;;15.37;9.60;;;;;;;7.95;66.12;97845.72;8316959;28;20237;-65
2021/11/13 12:56:46;;;;;;;11.10;9.83;;;;;;;8.03;66.65;97854.03;8290596;28;20244;-65
2021/11/13 13:00:53;;;;;;;11.23;10.13;;;;;;;7.89;66.88;97852.84;8283570;28;20547;-65
2021/11/13 13:04:56;;;;;;;10.63;9.53;;;;;;;8.14;66.84;97855.38;8303783;28;20244;-65
2021/11/13 13:09:02;;;;;;;14.83;10.40;;;;;;;7.96;66.83;97837.09;8316124;28;20241;-65
2021/11/13 13:13:11;;;;;;;11.67;10.47;;;;;;;8.19;66.47;97836.25;8316006;28;20232;-65
2021/11/13 13:17:24;;;;;;;12.53;11.33;;;;;;;7.88;66.97;97844.28;8316241;28;20239;-65
2021/11/13 13:21:27;;;;;;;13.23;11.80;;;;;;;8.09;66.38;97836.63;8316067;28;20233;-65
2021/11/13 13:25:32;;;;;;;14.00;12.60;;;;;;;7.76;67.91;97834.38;8315912;28;20248;-65
2021/11/13 13:29:41;;;;;;;15.83;14.13;;;;;;;8.05;66.94;97827.31;8315940;28;20244;-65
2021/11/13 13:33:52;;;;;;;16.33;14.70;;;;;;;8.07;66.66;97826.38;8315711;28;20267;-65
2021/11/13 13:37:58;;;;;;;17.03;15.27;;;;;;;8.38;66.40;97822.69;8315373;28;20247;-65
2021/11/13 13:42:01;;;;;;;16.40;14.67;;;;;;;7.98;67.69;97826.72;8315434;28;20240;-65
2021/11/13 13:46:09;;;;;;;16.40;14.80;;;;;;;8.15;67.01;97831.28;8315208;28;20236;-65
2021/11/13 13:50:12;;;;;;;17.67;15.83;;;;;;;8.23;65.85;97835.25;8315324;28;20229;-64
2021/11/13 13:54:18;;;;;;;16.60;14.90;;;;;;;8.05;67.29;97835.91;8315224;28;20264;-64
2021/11/13 13:58:21;;;;;;;16.83;15.03;;;;;;;8.23;66.74;97835.25;8315038;28;20244;-65
2021/11/13 14:02:29;;;;;;;16.23;14.63;;;;;;;8.18;66.78;97831.97;8314907;28;20236;-66
2021/11/13 14:06:32;;;;;;;16.00;14.37;;;;;;;7.98;67.62;97837.03;8282562;28;20237;-65
2021/11/13 14:10:46;;;;;;;15.13;13.63;;;;;;;8.15;66.92;97837.25;8282713;28;20248;-65
2021/11/13 14:14:49;;;;;;;15.57;13.97;;;;;;;8.10;67.77;97835.75;8282006;28;20234;-65
2021/11/13 14:18:53;;;;;;;15.17;13.67;;;;;;;8.13;67.07;97830.47;8281892;28;20241;-65
2021/11/13 14:23:02;;;;;;;14.60;13.20;;;;;;;8.32;66.57;97823.75;8282569;28;20233;-65
2021/11/13 14:27:08;;;;;;;13.67;12.33;;;;;;;8.16;67.70;97825.19;8282133;28;20249;-66
2021/11/13 14:31:18;;;;;;;14.57;13.00;;;;;;;8.32;67.17;97821.16;8281816;28;20237;-65
2021/11/13 14:35:24;;;;;;;15.10;13.50;;;;;;;8.08;68.09;97816.91;8281816;28;20240;-65
2021/11/13 14:39:28;;;;;;;15.87;14.23;;;;;;;7.98;68.42;97811.25;8281973;28;20237;-65
2021/11/13 14:43:33;;;;;;;18.00;16.10;;;;;;;7.91;69.63;97809.78;8281852;28;20233;-65
2021/11/13 14:47:40;;;;;;;18.70;16.47;;;;;;;7.86;69.09;97812.50;8281741;28;20237;-65
2021/11/13 14:51:45;;;;;;;15.80;14.20;;;;;;;8.21;67.36;97815.56;8281815;28;20579;-65
2021/11/13 14:55:50;;;;;;;16.70;13.13;;;;;;;8.12;68.34;97815.91;8281404;28;20225;-67
2021/11/13 14:59:54;;;;;;;18.47;14.77;;;;;;;8.20;67.60;97819.03;8287550;28;20234;-67
2021/11/13 15:03:56;;;;;;;14.73;13.13;;;;;;;8.36;67.05;97822.72;8299251;28;20232;-66
2021/11/13 15:08:01;;;;;;;17.37;14.37;;;;;;;8.26;67.10;97833.44;8320277;28;20275;-66
2021/11/13 15:12:05;;;;;;;15.67;13.07;;;;;;;8.19;67.62;97825.09;8309310;28;20244;-67
2021/11/13 15:16:14;;;;;;;13.93;12.63;;;;;;;8.30;67.29;97824.69;8293027;28;20539;-66
2021/11/13 15:20:21;;;;;;;13.43;12.13;;;;;;;8.16;68.29;97827.78;8287504;28;20234;-66
2021/11/13 15:24:32;;;;;;;13.73;12.27;;;;;;;8.38;67.28;97826.09;8287619;28;20285;-67
2021/11/13 15:28:35;;;;;;;16.30;13.20;;;;;;;8.49;66.81;97822.28;8287614;28;20418;-66
2021/11/13 15:32:38;;;;;;;16.17;12.90;;;;;;;8.49;66.70;97822.28;8287439;28;20234;-66
2021/11/13 15:36:41;;;;;;;17.17;14.63;;;;;;;8.38;66.61;97833.84;8287138;28;20242;-66
2021/11/13 15:40:46;;;;;;;13.30;12.00;;;;;;;8.60;66.33;97823.56;8287422;28;20236;-66
2021/11/13 15:44:51;;;;;;;18.27;15.30;;;;;;;8.53;66.31;97829.00;8286707;28;20229;-66
2021/11/13 15:48:56;;;;;;;21.10;17.30;;;;;;;8.45;67.04;97826.72;8289818;28;20228;-66
2021/11/13 15:53:04;;;;;;;16.70;14.90;;;;;;;8.03;67.96;97827.38;8318823;28;20239;-66
2021/11/13 15:57:08;;;;;;;16.37;14.77;;;;;;;8.35;67.44;97838.25;8313694;28;20412;-66
2021/11/13 16:01:12;;;;;;;15.17;13.67;;;;;;;8.60;66.23;97843.38;8303903;28;20571;-66
2021/11/13 16:05:15;;;;;;;23.27;17.97;;;;;;;8.53;66.82;97835.03;8301239;28;20225;-67
2021/11/13 16:09:21;;;;;;;17.63;15.37;;;;;;;8.44;66.93;97831.97;8306911;28;20562;-66
2021/11/13 16:13:26;;;;;;;17.87;15.50;;;;;;;8.71;66.35;97833.47;8318024;28;20236;-66
2021/11/13 16:17:28;;;;;;;17.57;15.40;;;;;;;8.35;67.47;97833.94;8318008;28;20244;-66
2021/11/13 16:21:32;;;;;;;18.50;16.60;;;;;;;8.63;66.79;97826.94;8317913;28;20236;-66
2021/11/13 16:25:35;;;;;;;19.73;16.23;;;;;;;8.35;68.08;97835.69;8317816;28;20244;-66
2021/11/13 16:29:40;;;;;;;18.70;16.63;;;;;;;8.78;66.60;97836.66;8317714;28;20259;-66
2021/11/13 16:33:43;;;;;;;22.57;18.30;;;;;;;8.41;67.47;97831.19;8317680;28;20239;-68
2021/11/13 16:38:08;;;;;;;20.87;18.00;;;;;;;8.54;66.88;97839.28;8315534;28;20423;-67
2021/11/13 16:42:11;;;;;;;27.47;20.53;;;;;;;8.49;66.85;97843.78;8317208;28;20228;-68
2021/11/13 16:46:17;;;;;;;20.50;17.93;;;;;;;8.47;67.49;97845.56;8317046;28;20228;-67
2021/11/13 16:50:20;;;;;;;16.53;14.83;;;;;;;8.64;67.08;97842.34;8298450;28;20225;-66
2021/11/13 16:54:23;;;;;;;18.10;14.17;;;;;;;8.56;67.03;97846.97;8310000;28;20225;-67
2021/11/13 16:58:27;;;;;;;19.53;16.17;;;;;;;8.55;67.39;97853.03;8298924;28;20241;-66
2021/11/13 17:02:31;;;;;;;18.00;15.10;;;;;;;8.58;67.79;97855.50;8297042;28;20233;-67
2021/11/13 17:06:36;;;;;;;19.03;15.27;;;;;;;8.41;68.30;97853.50;8316759;28;20236;-66
2021/11/13 17:10:40;;;;;;;16.00;14.03;;;;;;;8.72;66.91;97855.81;8316203;28;20232;-66
2021/11/13 17:14:44;;;;;;;18.33;15.67;;;;;;;8.76;66.98;97861.72;8316541;28;20237;-66
2021/11/13 17:18:49;;;;;;;18.57;16.00;;;;;;;8.61;67.90;97865.72;8316028;28;20241;-66
2021/11/13 17:22:54;;;;;;;18.23;15.77;;;;;;;8.66;66.79;97858.59;8316349;28;20237;-66
2021/11/13 17:26:59;;;;;;;16.87;14.70;;;;;;;8.66;67.70;97863.78;8315611;28;20240;-64
2021/11/13 17:31:03;;;;;;;19.30;16.27;;;;;;;8.61;67.98;97861.38;8315908;28;20256;-65
2021/11/13 17:35:09;;;;;;;20.13;17.13;;;;;;;8.63;68.05;97857.91;8298014;28;20249;-65
2021/11/13 17:39:12;;;;;;;22.80;20.40;;;;;;;8.82;67.37;97861.47;8283091;28;20236;-65
2021/11/13 17:43:15;;;;;;;25.03;22.00;;;;;;;8.81;67.71;97864.94;8282996;28;20237;-65
2021/11/13 17:47:18;;;;;;;26.97;23.47;;;;;;;8.75;67.99;97865.16;8299924;28;20241;-65
2021/11/13 17:51:23;;;;;;;24.80;20.10;;;;;;;8.96;67.18;97866.06;8283241;28;20240;-65
2021/11/13 17:55:25;;;;;;;21.17;18.97;;;;;;;8.88;68.06;97868.97;8282439;28;20540;-65
2021/11/13 17:59:28;;;;;;;22.00;18.70;;;;;;;8.75;68.55;97872.91;8293613;28;20307;-64
2021/11/13 18:03:32;;;;;;;21.20;18.40;;;;;;;8.79;68.95;97874.47;8314974;28;20237;-64
2021/11/13 18:07:38;;;;;;;23.97;19.77;;;;;;;8.81;68.40;97877.84;8314942;28;20543;-64
2021/11/13 18:11:41;;;;;;;18.90;16.90;;;;;;;8.90;68.47;97874.91;8314946;28;20241;-64
2021/11/13 18:15:44;;;;;;;21.50;17.63;;;;;;;9.09;67.29;97874.19;8314740;28;20247;-64
2021/11/13 18:20:02;;;;;;;22.40;17.37;;;;;;;8.96;67.69;97871.25;8314641;28;20236;-64
2021/11/13 18:24:06;;;;;;;18.43;16.40;;;;;;;9.11;67.45;97869.81;8314785;28;20243;-64
2021/11/13 18:28:13;;;;;;;18.83;16.80;;;;;;;9.14;67.13;97873.09;8314873;28;20295;-64
2021/11/13 18:32:16;;;;;;;18.40;16.60;;;;;;;9.02;68.30;97870.16;8316443;28;20232;-64
2021/11/13 18:36:19;;;;;;;21.63;19.07;;;;;;;8.84;68.03;97875.16;8321367;28;20229;-64
2021/11/13 18:40:25;;;;;;;22.13;19.73;;;;;;;8.79;68.56;97879.66;8321274;28;20433;-64
2021/11/13 18:44:28;;;;;;;26.57;21.10;;;;;;;8.89;68.49;97872.38;8321196;28;20232;-64
2021/11/13 18:48:31;;;;;;;33.30;24.90;;;;;;;8.90;68.53;97871.50;8321060;28;20240;-64
2021/11/13 18:52:34;;;;;;;29.67;22.30;;;;;;;9.02;68.19;97875.31;8320442;28;20240;-64
2021/11/13 18:56:38;;;;;;;35.77;25.87;;;;;;;8.45;70.39;97878.31;8319887;28;20233;-65
2021/11/13 19:00:41;;;;;;;30.83;23.00;;;;;;;8.64;69.51;97875.91;8318386;28;20233;-64
2021/11/13 19:04:48;;;;;;;30.13;23.20;;;;;;;8.82;69.36;97879.53;8320016;28;20237;-64
2021/11/13 19:08:51;;;;;;;20.67;18.17;;;;;;;8.87;68.73;97872.47;8287091;28;20233;-64